Time;durP1;ratioP1;P1;durP2;ratioP2;P2;SDS_P1;SDS_P2;PMS_P1;PMS_P2;Temp;Humidity;BMP_temperature;BMP_pressure;BME280_temperature;BME280_humidity;BME280_pressure;Samples;Min_cycle;Max_cycle;Signal;HPM_P1;HPM_P2
2023/05/11 00:01:32;;;;;;;12.07;7.10;;;;;;;17.30;66.55;101540.47;4978895;28;20488;-80
2023/05/11 00:03:58;;;;;;;11.32;6.63;;;;;;;17.39;66.23;101537.78;4981029;28;23151;-80
2023/05/11 00:06:23;;;;;;;14.73;8.05;;;;;;;16.93;67.65;101542.31;4976982;28;20391;-82
2023/05/11 00:08:49;;;;;;;14.57;7.97;;;;;;;16.93;67.99;101550.22;4967438;28;20045;-81
2023/05/11 00:11:20;;;;;;;14.20;8.13;;;;;;;17.07;67.67;101547.56;4994384;28;20405;-81
2023/05/11 00:13:49;;;;;;;12.45;7.30;;;;;;;17.16;67.39;101545.78;4985375;28;20038;-78
2023/05/11 00:16:20;;;;;;;12.63;7.20;;;;;;;17.28;66.87;101544.84;4986568;28;20094;-78
2023/05/11 00:18:46;;;;;;;14.40;7.47;;;;;;;17.30;66.72;101548.38;4978994;28;20210;-81
2023/05/11 00:21:11;;;;;;;14.43;8.13;;;;;;;17.23;66.86;101549.28;4982824;28;20042;-81
2023/05/11 00:23:37;;;;;;;11.98;7.25;;;;;;;17.28;67.19;101548.38;4986723;28;20038;-80
2023/05/11 00:26:02;;;;;;;14.60;8.60;;;;;;;17.23;67.11;101544.00;4986877;28;20031;-78
2023/05/11 00:28:27;;;;;;;16.58;8.50;;;;;;;17.26;67.29;101539.56;4981578;28;20042;-81
2023/05/11 00:30:56;;;;;;;14.98;9.30;;;;;;;17.22;67.48;101551.03;4973653;28;20045;-80
2023/05/11 00:33:24;;;;;;;14.35;8.80;;;;;;;17.34;66.95;101547.47;4977895;28;20037;-80
2023/05/11 00:35:50;;;;;;;15.02;9.43;;;;;;;17.40;66.52;101550.97;4980970;28;20090;-82
2023/05/11 00:38:15;;;;;;;15.30;9.68;;;;;;;17.43;66.43;101543.06;4967827;28;20109;-80
2023/05/11 00:40:43;;;;;;;15.88;10.00;;;;;;;17.35;66.83;101544.84;4993956;28;20038;-80
2023/05/11 00:43:12;;;;;;;14.70;9.23;;;;;;;17.36;66.66;101546.59;4971794;28;20059;-80
2023/05/11 00:45:40;;;;;;;15.82;9.10;;;;;;;17.37;66.63;101543.09;4963919;28;20530;-82
2023/05/11 00:48:11;;;;;;;12.98;8.20;;;;;;;17.45;66.50;101541.28;4963652;28;20064;-81
2023/05/11 00:50:40;;;;;;;15.07;8.68;;;;;;;17.47;66.17;101543.03;4972424;28;20045;-81
2023/05/11 00:53:08;;;;;;;13.88;8.35;;;;;;;17.34;66.92;101543.06;4974272;28;20037;-81
2023/05/11 00:55:33;;;;;;;15.48;8.70;;;;;;;17.32;66.69;101546.63;4979888;28;20034;-79
2023/05/11 00:57:59;;;;;;;14.63;9.05;;;;;;;17.28;67.18;101542.22;4973384;28;20096;-81
2023/05/11 01:00:27;;;;;;;14.25;8.27;;;;;;;17.35;67.15;101542.19;4978676;28;20052;-80
2023/05/11 01:02:53;;;;;;;15.70;9.23;;;;;;;17.32;67.10;101544.81;4978078;28;20046;-83
2023/05/11 01:05:19;;;;;;;13.68;8.40;;;;;;;17.38;66.76;101544.81;4977354;28;20122;-83
2023/05/11 01:07:52;;;;;;;15.88;9.52;;;;;;;17.34;67.04;101536.94;4982404;23;20047;-44
2023/05/11 01:10:29;;;;;;;16.38;9.57;;;;;;;17.34;66.98;101544.84;4962600;28;20035;-46
2023/05/11 01:13:24;;;;;;;14.98;8.75;;;;;;;17.28;67.44;101539.59;4959150;28;20066;-48
2023/05/11 01:15:52;;;;;;;13.98;7.97;;;;;;;17.31;67.06;101544.84;4958787;28;20409;-48
2023/05/11 01:18:31;;;;;;;14.30;9.02;;;;;;;17.32;66.91;101547.47;4963011;28;20340;-49
2023/05/11 01:20:59;;;;;;;15.07;8.95;;;;;;;17.41;66.90;101552.72;4959011;28;20034;-49
2023/05/11 01:23:51;;;;;;;14.93;8.90;;;;;;;17.42;66.68;101550.97;4962146;28;20049;-48
2023/05/11 01:26:34;;;;;;;14.23;8.38;;;;;;;17.38;67.01;101547.44;4925714;28;20532;-48
2023/05/11 01:29:21;;;;;;;12.35;7.57;;;;;;;17.40;66.89;101544.81;4962640;28;20051;-50
2023/05/11 01:31:48;;;;;;;14.35;8.63;;;;;;;17.36;67.10;101545.72;4945987;28;20457;-50
2023/05/11 01:34:19;;;;;;;14.43;9.00;;;;;;;17.35;66.93;101546.59;4951154;28;20485;-50
2023/05/11 01:37:04;;;;;;;15.88;9.52;;;;;;;17.29;67.10;101543.97;4962502;28;20391;-48
2023/05/11 01:39:34;;;;;;;;;;;;;;;17.32;66.97;101539.56;4965871;28;20107;-48
2023/05/11 01:42:07;;;;;;;14.02;8.77;;;;;;;17.32;66.84;101534.28;4962233;28;20322;-45
2023/05/11 01:44:34;;;;;;;16.63;9.63;;;;;;;17.21;67.14;101548.38;4965997;28;20520;-48
2023/05/11 01:47:02;;;;;;;17.00;9.55;;;;;;;17.16;67.13;101545.78;4944236;28;20501;-49
2023/05/11 01:49:31;;;;;;;15.82;9.13;;;;;;;16.96;67.85;101556.34;4946724;28;20043;-50
2023/05/11 01:51:57;;;;;;;17.70;9.77;;;;;;;17.06;67.55;101545.81;4953321;28;20120;-50
2023/05/11 01:54:24;;;;;;;16.15;8.85;;;;;;;17.15;67.53;101554.56;4965591;28;20026;-48
2023/05/11 01:56:51;;;;;;;17.85;9.07;;;;;;;17.13;67.56;101551.06;4960723;28;20517;-52
2023/05/11 01:59:18;;;;;;;15.75;8.85;;;;;;;17.17;67.59;101552.81;4947083;28;20126;-48
2023/05/11 02:01:44;;;;;;;18.67;9.30;;;;;;;17.18;67.37;101551.94;4961836;28;20034;-50
2023/05/11 02:04:11;;;;;;;15.38;8.80;;;;;;;17.13;67.50;101552.81;4953102;28;20101;-46
2023/05/11 02:06:38;;;;;;;17.73;9.02;;;;;;;17.16;67.68;101553.69;4953758;28;20171;-46
2023/05/11 02:09:06;;;;;;;18.52;9.63;;;;;;;17.23;67.53;101560.69;4962140;28;20039;-46
2023/05/11 02:11:33;;;;;;;18.73;9.63;;;;;;;17.20;67.49;101565.94;4964955;28;20442;-48
2023/05/11 02:13:59;;;;;;;16.05;8.88;;;;;;;17.24;67.68;101565.09;4962164;28;20137;-46
2023/05/11 02:16:27;;;;;;;17.85;9.40;;;;;;;17.29;67.56;101568.56;4964919;28;20031;-49
2023/05/11 02:18:53;;;;;;;17.35;9.30;;;;;;;17.25;67.72;101573.88;4961503;28;20179;-48
2023/05/11 02:21:19;;;;;;;18.17;9.85;;;;;;;17.30;67.28;101569.47;4964879;28;20038;-45
2023/05/11 02:23:46;;;;;;;18.70;10.13;;;;;;;17.26;67.40;101563.28;4962744;28;20043;-46
2023/05/11 02:26:15;;;;;;;20.67;10.98;;;;;;;17.23;67.35;101560.69;4965777;28;20027;-46
2023/05/11 02:28:41;;;;;;;19.80;10.18;;;;;;;17.31;67.23;101568.56;4962161;28;20038;-46
2023/05/11 02:31:11;;;;;;;20.60;10.90;;;;;;;17.25;67.43;101560.69;4965593;28;20043;-46
2023/05/11 02:33:42;;;;;;;20.70;11.38;;;;;;;17.20;67.50;101567.75;4965399;28;20027;-48
2023/05/11 02:36:08;;;;;;;19.27;10.70;;;;;;;17.29;67.29;101565.94;4961873;28;20031;-46
2023/05/11 02:38:35;;;;;;;21.00;10.93;;;;;;;17.25;67.27;101565.97;4964425;28;20039;-46
2023/05/11 02:41:08;;;;;;;17.65;9.88;;;;;;;17.26;67.20;101565.94;4961916;28;20420;-48
2023/05/11 02:43:39;;;;;;;18.10;10.13;;;;;;;17.21;67.45;101569.47;4965049;28;20493;-47
2023/05/11 02:46:10;;;;;;;20.15;10.20;;;;;;;17.21;67.37;101570.34;4961648;28;20034;-47
2023/05/11 02:48:43;;;;;;;16.95;9.80;;;;;;;17.30;67.17;101570.34;4965013;28;20055;-50
2023/05/11 02:51:11;;;;;;;18.08;9.90;;;;;;;17.19;67.50;101563.34;4962365;28;20038;-48
2023/05/11 02:53:39;;;;;;;17.67;10.00;;;;;;;17.19;67.25;101572.13;4966408;28;20565;-50
2023/05/11 02:56:05;;;;;;;15.75;9.13;;;;;;;17.17;67.36;101573.00;4968139;28;20043;-46
2023/05/11 02:58:30;;;;;;;19.75;10.00;;;;;;;17.13;67.49;101561.59;4977697;28;20026;-45
2023/05/11 03:00:56;;;;;;;17.58;9.13;;;;;;;17.16;67.50;101566.84;4968719;28;20079;-48
2023/05/11 03:03:21;;;;;;;18.00;10.10;;;;;;;17.06;67.78;101565.13;4965318;28;20551;-47
2023/05/11 03:05:47;;;;;;;17.95;9.65;;;;;;;17.06;67.99;101570.41;4961622;28;20394;-46
2023/05/11 03:08:12;;;;;;;17.38;9.68;;;;;;;16.94;67.89;101566.03;4964642;28;20092;-49
2023/05/11 03:10:38;;;;;;;18.73;9.82;;;;;;;16.90;68.13;101569.53;4964122;28;20043;-46
2023/05/11 03:13:04;;;;;;;17.40;9.48;;;;;;;16.92;67.99;101561.63;4961437;28;20179;-46
2023/05/11 03:15:30;;;;;;;17.25;9.30;;;;;;;16.97;68.10;101565.13;4957355;28;20118;-46
2023/05/11 03:17:56;;;;;;;17.90;9.18;;;;;;;17.07;68.08;101566.00;4942061;28;20439;-47
2023/05/11 03:20:22;;;;;;;17.52;9.10;;;;;;;17.09;68.10;101551.06;4945024;28;20035;-45
2023/05/11 03:22:48;;;;;;;16.92;9.30;;;;;;;17.15;67.87;101557.19;4942536;28;20092;-46
2023/05/11 03:25:15;;;;;;;17.63;9.20;;;;;;;17.16;67.72;101555.44;4951442;28;20545;-49
2023/05/11 03:27:42;;;;;;;16.08;9.38;;;;;;;17.16;67.94;101555.44;4950059;28;20043;-48
2023/05/11 03:30:10;;;;;;;15.13;8.63;;;;;;;17.21;67.60;101557.16;4964051;28;20050;-48
2023/05/11 03:32:35;;;;;;;16.15;8.52;;;;;;;17.23;67.56;101554.53;4964020;28;20030;-49
2023/05/11 03:35:01;;;;;;;15.68;8.15;;;;;;;17.26;67.39;101558.03;4957523;28;20043;-49
2023/05/11 03:37:29;;;;;;;16.15;8.52;;;;;;;17.19;67.54;101553.69;4951244;28;20114;-48
2023/05/11 03:39:58;;;;;;;17.50;9.40;;;;;;;17.13;67.67;101548.44;4959026;28;20050;-49
2023/05/11 03:42:25;;;;;;;18.55;9.38;;;;;;;17.16;67.57;101553.69;4964159;28;20205;-46
2023/05/11 03:44:54;;;;;;;17.95;8.48;;;;;;;17.26;67.38;101546.63;4960189;28;20046;-46
2023/05/11 03:47:21;;;;;;;16.42;8.70;;;;;;;17.30;66.82;101549.25;4963458;28;20029;-46
2023/05/11 03:49:47;;;;;;;17.52;9.00;;;;;;;17.21;67.17;101546.63;4959955;28;20038;-45
2023/05/11 03:52:13;;;;;;;18.02;9.50;;;;;;;17.14;67.60;101547.53;4963348;28;20117;-45
2023/05/11 03:54:38;;;;;;;19.08;9.35;;;;;;;17.21;67.38;101544.00;4962953;28;20300;-45
2023/05/11 03:57:03;;;;;;;16.10;8.90;;;;;;;17.20;67.57;101544.03;4961318;28;20046;-45
2023/05/11 03:59:29;;;;;;;17.73;9.38;;;;;;;17.23;67.35;101542.25;4963704;28;20030;-46
2023/05/11 04:01:54;;;;;;;16.27;9.05;;;;;;;17.20;67.48;101549.28;4960106;28;20035;-47
2023/05/11 04:04:28;;;;;;;18.08;9.45;;;;;;;17.15;67.57;101548.41;4963552;28;20027;-51
2023/05/11 04:06:53;;;;;;;19.07;9.53;;;;;;;17.12;67.51;101545.78;4959851;28;20097;-48
2023/05/11 04:09:18;;;;;;;18.13;8.90;;;;;;;17.26;67.04;101544.84;4963334;28;20274;-50
2023/05/11 04:11:44;;;;;;;17.50;8.88;;;;;;;17.29;67.09;101544.84;4960689;28;20121;-46
2023/05/11 04:14:09;;;;;;;17.15;8.85;;;;;;;17.21;67.03;101551.03;4963644;28;20420;-49
2023/05/11 04:16:34;;;;;;;19.60;9.80;;;;;;;17.16;67.38;101544.91;4963389;28;20123;-49
2023/05/11 04:19:00;;;;;;;18.67;9.73;;;;;;;17.17;67.48;101550.16;4959833;28;20031;-47
2023/05/11 04:21:26;;;;;;;18.23;8.95;;;;;;;17.25;67.10;101556.31;4963527;28;20045;-45
2023/05/11 04:23:51;;;;;;;17.75;9.05;;;;;;;17.30;67.14;101551.00;4960059;28;20031;-45
2023/05/11 04:26:16;;;;;;;18.77;9.55;;;;;;;17.23;67.25;101551.91;4963605;28;20027;-48
2023/05/11 04:28:41;;;;;;;19.35;9.30;;;;;;;17.29;67.31;101555.41;4959196;28;20030;-46
2023/05/11 04:31:07;;;;;;;16.63;8.70;;;;;;;17.32;67.29;101558.00;4963075;28;20038;-46
2023/05/11 04:33:32;;;;;;;17.95;9.57;;;;;;;17.34;67.27;101556.25;4962926;28;20369;-50
2023/05/11 04:35:58;;;;;;;19.52;9.27;;;;;;;17.30;67.76;101564.19;4959370;28;20456;-49
2023/05/11 04:38:23;;;;;;;18.95;9.32;;;;;;;17.36;67.57;101566.81;4963055;28;20501;-47
2023/05/11 04:40:49;;;;;;;19.77;9.63;;;;;;;17.38;67.59;101565.03;4959923;28;20050;-50
2023/05/11 04:43:15;;;;;;;17.83;9.05;;;;;;;17.30;67.42;101559.78;4962652;28;20497;-49
2023/05/11 04:45:40;;;;;;;18.77;9.10;;;;;;;17.45;67.31;101558.84;4959389;28;20049;-48
2023/05/11 04:48:06;;;;;;;17.67;9.05;;;;;;;17.47;67.42;101565.00;4962968;28;20547;-45
2023/05/11 04:50:32;;;;;;;18.33;8.93;;;;;;;17.54;67.12;101565.84;4962563;28;20152;-47
2023/05/11 04:52:57;;;;;;;17.65;8.50;;;;;;;17.66;67.00;101557.91;4959207;28;20050;-48
2023/05/11 04:55:22;;;;;;;16.67;8.15;;;;;;;17.76;66.80;101565.78;4961151;28;20405;-48
2023/05/11 04:57:48;;;;;;;17.40;8.95;;;;;;;17.82;66.43;101560.47;4959462;28;20122;-48
2023/05/11 05:00:13;;;;;;;16.55;8.52;;;;;;;17.76;66.63;101565.78;4962382;28;20050;-49
2023/05/11 05:02:39;;;;;;;15.77;8.50;;;;;;;17.77;66.65;101574.56;4958398;28;20142;-45
2023/05/11 05:05:04;;;;;;;16.05;8.27;;;;;;;17.74;66.52;101569.31;4962656;28;20031;-47
2023/05/11 05:07:30;;;;;;;15.15;8.23;;;;;;;17.74;66.33;101574.59;4962508;28;20517;-46
2023/05/11 05:09:55;;;;;;;17.85;8.93;;;;;;;17.71;66.17;101575.47;4959232;28;20038;-47
2023/05/11 05:12:20;;;;;;;18.35;8.90;;;;;;;17.62;66.94;101583.44;4962373;28;20635;-49
2023/05/11 05:14:46;;;;;;;17.30;9.15;;;;;;;17.63;66.93;101581.66;4959165;28;20038;-46
2023/05/11 05:17:11;;;;;;;18.63;10.45;;;;;;;17.68;67.15;101583.41;4962593;28;20035;-46
2023/05/11 05:19:36;;;;;;;14.70;8.23;;;;;;;17.70;66.81;101592.16;4962549;28;20159;-46
2023/05/11 05:22:02;;;;;;;17.30;9.00;;;;;;;17.76;66.95;101591.25;4959167;28;20039;-47
2023/05/11 05:24:27;;;;;;;16.48;8.20;;;;;;;17.87;66.61;101592.09;4962108;28;20035;-48
2023/05/11 05:26:52;;;;;;;17.67;9.10;;;;;;;17.80;66.88;101593.03;4958981;28;20066;-49
2023/05/11 05:29:18;;;;;;;17.20;8.73;;;;;;;17.81;66.65;101600.91;4962865;28;20035;-47
2023/05/11 05:31:43;;;;;;;16.20;8.40;;;;;;;17.73;66.89;101605.38;4958895;28;20457;-48
2023/05/11 05:34:08;;;;;;;18.48;8.77;;;;;;;17.68;66.85;101612.41;4962164;28;20043;-48
2023/05/11 05:36:34;;;;;;;16.48;8.43;;;;;;;17.77;66.76;101611.47;4962095;28;20030;-47
2023/05/11 05:38:59;;;;;;;16.55;8.90;;;;;;;17.72;67.12;101614.16;4958439;28;20070;-47
2023/05/11 05:41:24;;;;;;;16.30;8.65;;;;;;;17.76;66.73;101622.91;4962575;28;20035;-46
2023/05/11 05:43:50;;;;;;;16.02;8.15;;;;;;;17.77;67.05;101617.63;4959245;28;20126;-45
2023/05/11 05:46:16;;;;;;;16.20;8.20;;;;;;;17.87;67.36;101617.63;4963267;28;20023;-49
2023/05/11 05:48:41;;;;;;;16.55;8.52;;;;;;;18.01;66.96;101616.63;4941875;28;20545;-50
2023/05/11 05:51:07;;;;;;;16.38;8.32;;;;;;;18.15;66.64;101617.44;4962581;28;20034;-50
2023/05/11 05:53:32;;;;;;;16.38;8.65;;;;;;;18.33;66.30;101629.66;4963002;28;20405;-50
2023/05/11 05:55:57;;;;;;;15.35;8.23;;;;;;;18.53;65.38;101624.25;4959902;28;21397;-48
2023/05/11 05:58:23;;;;;;;15.32;8.30;;;;;;;18.55;64.68;101630.41;4963069;28;20038;-44
2023/05/11 06:00:48;;;;;;;15.65;8.52;;;;;;;18.59;64.54;101626.88;4959102;28;20039;-49
2023/05/11 06:03:14;;;;;;;15.70;8.60;;;;;;;18.54;64.81;101631.28;4962352;28;20031;-45
2023/05/11 06:05:39;;;;;;;14.73;8.40;;;;;;;18.56;64.97;101635.69;4959182;28;20420;-45
2023/05/11 06:08:04;;;;;;;15.80;8.60;;;;;;;18.58;65.33;101627.75;4962513;28;20050;-43
2023/05/11 06:10:30;;;;;;;16.35;8.93;;;;;;;18.58;65.47;101630.41;4962070;28;20039;-50
2023/05/11 06:12:55;;;;;;;15.95;8.70;;;;;;;18.59;65.39;101630.38;4960110;28;20461;-45
2023/05/11 06:15:20;;;;;;;13.63;7.72;;;;;;;18.61;65.59;101628.59;4965672;28;20053;-46
2023/05/11 06:17:45;;;;;;;13.18;7.63;;;;;;;18.40;64.89;101630.50;4962892;28;20038;-48
2023/05/11 06:20:11;;;;;;;13.80;8.40;;;;;;;18.32;65.66;101633.19;4965160;28;20405;-48
2023/05/11 06:22:37;;;;;;;15.98;8.32;;;;;;;18.56;65.63;101635.69;4964782;28;20106;-48
2023/05/11 06:25:02;;;;;;;15.65;8.55;;;;;;;18.92;64.00;101641.53;4961950;28;20405;-48
2023/05/11 06:27:28;;;;;;;18.55;9.02;;;;;;;18.90;63.01;101635.44;4964951;28;20081;-47
2023/05/11 06:29:53;;;;;;;16.42;8.98;;;;;;;19.01;62.99;101630.91;4961050;28;20042;-49
2023/05/11 06:32:18;;;;;;;17.77;9.18;;;;;;;19.19;62.33;101638.66;4965517;28;20501;-46
2023/05/11 06:34:44;;;;;;;14.52;8.40;;;;;;;19.17;62.43;101642.19;4960129;28;20038;-49
2023/05/11 06:37:09;;;;;;;14.40;8.77;;;;;;;19.27;62.28;101639.44;4964857;28;20031;-44
2023/05/11 06:39:36;;;;;;;16.27;9.20;;;;;;;19.05;62.75;101640.56;4965016;28;20468;-42
2023/05/11 06:42:02;;;;;;;15.60;8.70;;;;;;;19.41;62.17;101639.31;4961797;28;20046;-47
2023/05/11 06:44:27;;;;;;;16.17;9.43;;;;;;;19.19;61.55;101643.06;4965600;28;20031;-44
2023/05/11 06:46:53;;;;;;;14.45;8.40;;;;;;;19.32;61.26;101639.41;4961304;28;20035;-46
2023/05/11 06:49:18;;;;;;;16.02;9.20;;;;;;;19.45;60.91;101646.34;4965044;28;20031;-46
2023/05/11 06:51:43;;;;;;;16.50;9.40;;;;;;;19.64;60.71;101641.75;4961301;28;20030;-48
2023/05/11 06:54:09;;;;;;;17.88;10.43;;;;;;;19.46;59.90;101644.59;4964549;28;20378;-44
2023/05/11 06:56:34;;;;;;;21.23;10.88;;;;;;;19.47;60.51;101641.03;4964783;28;20413;-45
2023/05/11 06:58:59;;;;;;;17.67;10.30;;;;;;;19.65;60.62;101644.34;4961131;28;20130;-45
2023/05/11 07:01:25;;;;;;;18.10;10.50;;;;;;;19.50;61.65;101648.94;4964380;28;20031;-44
2023/05/11 07:03:53;;;;;;;23.40;11.48;;;;;;;19.24;61.83;101644.78;4961225;28;20066;-42
2023/05/11 07:06:18;;;;;;;22.60;11.18;;;;;;;19.48;61.09;101634.84;4963516;28;20042;-44
2023/05/11 07:08:44;;;;;;;22.95;11.88;;;;;;;19.94;59.44;101636.06;4960804;28;20046;-47
2023/05/11 07:11:11;;;;;;;20.40;11.07;;;;;;;20.08;60.30;101636.75;4964115;28;20391;-47
2023/05/11 07:13:37;;;;;;;23.20;12.10;;;;;;;20.36;59.72;101644.34;4966849;28;20122;-48
2023/05/11 07:16:02;;;;;;;20.50;11.93;;;;;;;19.95;59.43;101650.16;4960412;28;20548;-46
2023/05/11 07:18:27;;;;;;;21.23;11.50;;;;;;;20.09;60.05;101646.44;4963892;28;20035;-48
2023/05/11 07:20:53;;;;;;;21.88;11.50;;;;;;;20.24;59.56;101648.03;4989033;23;20505;-45
2023/05/11 07:23:18;;;;;;;22.88;11.93;;;;;;;20.41;60.13;101650.44;4984366;28;20028;-46
2023/05/11 07:25:43;;;;;;;19.48;11.00;;;;;;;20.67;59.75;101651.78;4979927;28;20089;-48
2023/05/11 07:28:09;;;;;;;21.38;11.50;;;;;;;20.85;58.32;101653.28;4983941;28;20440;-46
2023/05/11 07:30:34;;;;;;;21.58;11.45;;;;;;;21.01;57.88;101649.47;4983450;28;20121;-46
2023/05/11 07:32:59;;;;;;;20.15;11.15;;;;;;;21.35;56.81;101647.09;4980619;28;20321;-44
2023/05/11 07:35:25;;;;;;;21.35;11.65;;;;;;;21.28;55.33;101655.22;4983772;28;20041;-46
2023/05/11 07:37:50;;;;;;;18.40;10.85;;;;;;;21.30;56.64;101656.94;4983171;28;20125;-46
2023/05/11 07:40:16;;;;;;;23.50;12.65;;;;;;;20.44;57.99;101656.56;4993386;28;20117;-46
2023/05/11 07:42:41;;;;;;;25.33;12.48;;;;;;;20.44;58.00;101651.25;4986257;28;20060;-45
2023/05/11 07:45:07;;;;;;;21.65;12.25;;;;;;;20.40;57.18;101654.00;4983945;28;20050;-44
2023/05/11 07:47:32;;;;;;;20.33;11.52;;;;;;;20.43;56.27;101656.59;4983795;28;20085;-44
2023/05/11 07:49:57;;;;;;;19.17;11.35;;;;;;;20.69;55.15;101665.00;4980164;28;20198;-44
2023/05/11 07:52:23;;;;;;;20.20;11.65;;;;;;;20.67;55.15;101668.59;4983788;28;20082;-43
2023/05/11 07:54:48;;;;;;;22.70;13.38;;;;;;;20.65;55.65;101664.19;4981233;28;20081;-44
2023/05/11 07:57:13;;;;;;;24.17;12.32;;;;;;;20.79;55.06;101666.63;4983478;28;20030;-46
2023/05/11 07:59:39;;;;;;;22.95;12.65;;;;;;;20.87;55.22;101659.41;4979156;28;20038;-45
2023/05/11 08:02:07;;;;;;;23.05;12.50;;;;;;;20.90;55.77;101658.50;4982375;28;20072;-47
2023/05/11 08:04:32;;;;;;;23.48;12.30;;;;;;;20.84;56.72;101654.19;4982892;28;20030;-46
2023/05/11 08:06:57;;;;;;;23.27;11.50;;;;;;;20.53;57.06;101663.50;4980224;28;20172;-43
2023/05/11 08:09:23;;;;;;;22.08;11.45;;;;;;;20.48;55.50;101658.28;4983774;28;20038;-43
2023/05/11 08:11:48;;;;;;;20.17;11.93;;;;;;;20.73;55.25;101665.84;4982155;28;20039;-49
2023/05/11 08:14:14;;;;;;;20.52;12.30;;;;;;;20.92;56.09;101664.66;4984085;28;20151;-47
2023/05/11 08:16:40;;;;;;;19.48;11.00;;;;;;;21.26;54.63;101672.94;4979781;28;20500;-47
2023/05/11 08:19:05;;;;;;;22.52;13.05;;;;;;;21.10;53.66;101676.72;4982857;28;20030;-48
2023/05/11 08:21:31;;;;;;;20.65;12.45;;;;;;;21.14;54.42;101667.81;4982875;28;20035;-47
2023/05/11 08:23:57;;;;;;;24.45;12.75;;;;;;;21.33;53.98;101669.28;4979504;28;20516;-49
2023/05/11 08:26:22;;;;;;;20.35;11.93;;;;;;;21.47;53.13;101664.56;4982930;28;20053;-47
2023/05/11 08:28:47;;;;;;;22.25;12.38;;;;;;;21.04;54.42;101664.47;4977705;28;20046;-47
2023/05/11 08:31:13;;;;;;;19.25;11.55;;;;;;;21.07;55.01;101667.03;4980984;28;20497;-46
2023/05/11 08:33:38;;;;;;;21.20;13.23;;;;;;;20.94;53.69;101665.50;4982541;28;20038;-46
2023/05/11 08:36:04;;;;;;;21.40;12.80;;;;;;;20.83;54.88;101670.97;4978215;28;20030;-47
2023/05/11 08:38:30;;;;;;;20.30;12.73;;;;;;;20.74;55.74;101681.72;4982761;28;20034;-46
2023/05/11 08:40:55;;;;;;;21.90;13.35;;;;;;;20.52;55.27;101675.88;4979100;28;20040;-45
2023/05/11 08:43:22;;;;;;;22.05;12.93;;;;;;;20.32;56.98;101674.38;4982870;28;20117;-46
2023/05/11 08:45:54;;;;;;;20.17;12.48;;;;;;;20.33;56.84;101670.88;4979427;28;20084;-45
2023/05/11 08:48:21;;;;;;;18.88;12.65;;;;;;;20.44;54.85;101671.56;4982717;28;20064;-47
2023/05/11 08:50:47;;;;;;;17.20;11.30;;;;;;;20.60;55.75;101671.34;4979376;28;20523;-48
2023/05/11 08:53:13;;;;;;;20.73;13.68;;;;;;;20.33;54.21;101668.22;4983011;28;20042;-48
2023/05/11 08:55:40;;;;;;;20.45;13.15;;;;;;;21.04;55.43;101667.94;4983193;28;20034;-49
2023/05/11 08:58:06;;;;;;;19.75;11.65;;;;;;;21.14;54.84;101675.75;4979885;28;20088;-44
2023/05/11 09:00:33;;;;;;;18.58;12.00;;;;;;;20.86;55.17;101675.38;4982650;28;20026;-44
2023/05/11 09:02:58;;;;;;;16.40;11.50;;;;;;;21.98;49.85;101675.09;4979322;28;20133;-44
2023/05/11 09:05:24;;;;;;;18.92;12.80;;;;;;;21.36;53.96;101677.16;4982597;28;20142;-43
2023/05/11 09:07:54;;;;;;;18.38;12.57;;;;;;;21.48;52.71;101673.41;4978739;28;20085;-48
2023/05/11 09:10:19;;;;;;;20.13;12.68;;;;;;;22.10;52.50;101670.38;4982776;28;20045;-46
2023/05/11 09:12:45;;;;;;;17.45;11.60;;;;;;;22.22;51.07;101675.44;4978898;28;20038;-45
2023/05/11 09:15:11;;;;;;;19.63;13.10;;;;;;;21.35;53.58;101665.66;4982435;28;20046;-47
2023/05/11 09:17:36;;;;;;;16.58;11.05;;;;;;;21.71;53.78;101669.38;4982404;28;20034;-49
2023/05/11 09:20:06;;;;;;;17.52;10.90;;;;;;;22.08;53.56;101671.34;4979093;28;20065;-45
2023/05/11 09:22:42;;;;;;;17.25;11.25;;;;;;;22.15;52.61;101668.50;4982517;28;20042;-50
2023/05/11 09:25:11;;;;;;;18.27;11.57;;;;;;;21.46;55.42;101673.44;4979716;28;20136;-44
2023/05/11 09:27:41;;;;;;;13.50;9.40;;;;;;;22.24;52.59;101664.78;4983323;28;20026;-44
2023/05/11 09:30:18;;;;;;;11.20;7.47;;;;;;;22.50;49.57;101669.50;4981820;28;20066;-44
2023/05/11 09:32:58;;;;;;;9.75;6.53;;;;;;;22.73;47.97;101669.88;4980850;28;20038;-47
2023/05/11 09:35:25;;;;;;;11.63;6.85;;;;;;;22.41;49.46;101670.59;4983991;28;20030;-46
2023/05/11 09:37:58;;;;;;;11.27;6.60;;;;;;;22.83;47.51;101668.72;4981780;28;20121;-48
2023/05/11 09:40:25;;;;;;;12.87;7.57;;;;;;;22.89;47.83;101673.00;4984175;28;20031;-48
2023/05/11 09:42:50;;;;;;;14.27;8.00;;;;;;;22.87;48.58;101665.06;4980904;28;20357;-45
2023/05/11 09:45:35;;;;;;;15.05;9.07;;;;;;;22.92;47.94;101668.50;4984195;28;20066;-44
2023/05/11 09:48:02;;;;;;;17.17;9.95;;;;;;;22.59;47.82;101672.81;4979458;28;20034;-51
2023/05/11 09:50:32;;;;;;;16.73;10.18;;;;;;;22.35;48.32;101667.19;4985109;28;20031;-50
2023/05/11 09:52:57;;;;;;;14.52;9.52;;;;;;;22.34;49.28;101668.09;4981973;28;20390;-47
2023/05/11 09:55:23;;;;;;;16.55;9.95;;;;;;;22.65;47.11;101663.81;4985884;28;20106;-46
2023/05/11 09:57:57;;;;;;;17.30;10.95;;;;;;;22.62;46.45;101667.44;4982573;28;20089;-50
2023/05/11 10:00:24;;;;;;;17.55;10.77;;;;;;;22.93;47.58;101672.03;4985832;28;20060;-43
2023/05/11 10:03:01;;;;;;;20.65;12.65;;;;;;;22.22;48.99;101667.47;4983728;28;20043;-45
2023/05/11 10:05:27;;;;;;;18.13;11.38;;;;;;;22.08;49.67;101671.34;4986064;28;20030;-45
2023/05/11 10:08:05;;;;;;;19.38;11.63;;;;;;;22.77;47.77;101673.31;4982526;28;20038;-45
2023/05/11 10:10:32;;;;;;;18.60;11.40;;;;;;;23.05;46.31;101667.25;4985304;28;20034;-44
2023/05/11 10:12:59;;;;;;;17.08;10.07;;;;;;;22.80;47.43;101667.94;4982888;28;20053;-44
2023/05/11 10:15:31;;;;;;;15.40;10.65;;;;;;;22.76;45.62;101675.09;4985560;28;20033;-46
2023/05/11 10:17:59;;;;;;;14.85;9.93;;;;;;;22.97;45.19;101674.56;4983045;28;20438;-52
2023/05/11 10:20:25;;;;;;;15.98;9.60;;;;;;;23.10;46.30;101667.16;4982948;28;20165;-47
2023/05/11 10:22:52;;;;;;;16.50;10.38;;;;;;;22.79;46.53;101664.41;4982147;28;20124;-53
2023/05/11 10:25:20;;;;;;;17.48;10.30;;;;;;;23.14;46.63;101666.16;4985360;28;20022;-47
2023/05/11 10:27:45;;;;;;;16.70;10.35;;;;;;;22.31;48.73;101662.88;4981113;28;20042;-45
2023/05/11 10:30:12;;;;;;;15.38;9.98;;;;;;;22.17;47.37;101663.16;4984516;28;20100;-46
2023/05/11 10:32:37;;;;;;;17.20;10.98;;;;;;;21.62;51.28;101674.00;4985304;28;20121;-49
2023/05/11 10:35:04;;;;;;;20.40;11.73;;;;;;;20.93;56.29;101679.63;4979620;28;20497;-45
2023/05/11 10:37:31;;;;;;;20.67;11.98;;;;;;;20.55;57.40;101681.13;4984953;28;20041;-47
2023/05/11 10:39:56;;;;;;;20.90;11.85;;;;;;;20.27;58.20;101677.97;4981289;28;20035;-48
2023/05/11 10:42:46;;;;;;;19.83;12.23;;;;;;;20.25;56.67;101673.56;4984459;28;20493;-45
2023/05/11 10:45:30;;;;;;;21.65;12.18;;;;;;;20.11;58.46;101687.03;4983490;28;20524;-46
2023/05/11 10:47:58;;;;;;;22.52;12.48;;;;;;;19.51;60.48;101690.38;4981081;28;20121;-47
2023/05/11 10:50:46;;;;;;;20.27;11.38;;;;;;;19.85;59.49;101684.69;4984377;28;20030;-49
2023/05/11 10:53:18;;;;;;;15.80;9.27;;;;;;;19.40;59.78;101688.66;4982550;28;20043;-51
2023/05/11 10:56:00;;;;;;;20.08;11.30;;;;;;;19.01;61.46;101691.69;4980699;28;20109;-43
2023/05/11 10:58:42;;;;;;;23.85;10.95;;;;;;;19.39;61.53;101694.00;4983678;28;20038;-45
2023/05/11 11:01:18;;;;;;;21.90;11.45;;;;;;;19.40;62.19;101690.44;4981356;28;20373;-45
2023/05/11 11:03:58;;;;;;;18.48;10.68;;;;;;;18.80;64.15;101694.50;4979614;28;20489;-45
2023/05/11 11:06:24;;;;;;;25.23;11.70;;;;;;;18.84;65.51;101685.69;4983636;28;20366;-45
2023/05/11 11:08:57;;;;;;;19.83;9.80;;;;;;;19.06;64.47;101679.31;4980960;28;20458;-52
2023/05/11 11:11:38;;;;;;;19.00;9.48;;;;;;;18.96;65.96;101685.56;4984066;28;20505;-49
2023/05/11 11:14:04;;;;;;;14.00;8.32;;;;;;;18.98;66.21;101695.22;4979446;28;20038;-48
2023/05/11 11:16:34;;;;;;;15.75;8.88;;;;;;;18.91;66.77;101696.16;4984683;28;20501;-46